sensor_id;sensor_type;location;lat;lon;timestamp;P1;durP1;ratioP1;P2;durP2;ratioP2
55216;SDS011;41086;46.736;15.666;2023-06-10T00:01:41;13.27;;;8.40;;
55216;SDS011;41086;46.736;15.666;2023-06-10T00:04:09;13.48;;;8.95;;
55216;SDS011;41086;46.736;15.666;2023-06-10T00:06:36;14.73;;;8.35;;
55216;SDS011;41086;46.736;15.666;2023-06-10T00:09:03;15.52;;;9.52;;
55216;SDS011;41086;46.736;15.666;2023-06-10T00:11:31;12.82;;;8.88;;
55216;SDS011;41086;46.736;15.666;2023-06-10T00:13:59;13.00;;;8.60;;
55216;SDS011;41086;46.736;15.666;2023-06-10T00:16:26;14.73;;;8.48;;
55216;SDS011;41086;46.736;15.666;2023-06-10T00:18:53;15.75;;;9.70;;
55216;SDS011;41086;46.736;15.666;2023-06-10T00:21:22;13.15;;;8.80;;
55216;SDS011;41086;46.736;15.666;2023-06-10T00:23:50;12.15;;;9.23;;
55216;SDS011;41086;46.736;15.666;2023-06-10T00:26:17;11.95;;;7.95;;
55216;SDS011;41086;46.736;15.666;2023-06-10T00:28:45;15.32;;;8.82;;
55216;SDS011;41086;46.736;15.666;2023-06-10T00:31:12;13.88;;;8.07;;
55216;SDS011;41086;46.736;15.666;2023-06-10T00:33:39;11.02;;;8.65;;
55216;SDS011;41086;46.736;15.666;2023-06-10T00:36:06;17.20;;;10.15;;
55216;SDS011;41086;46.736;15.666;2023-06-10T00:38:32;15.55;;;9.30;;
55216;SDS011;41086;46.736;15.666;2023-06-10T00:41:01;11.55;;;8.85;;
55216;SDS011;41086;46.736;15.666;2023-06-10T00:43:28;15.43;;;10.07;;
55216;SDS011;41086;46.736;15.666;2023-06-10T00:45:54;11.88;;;10.15;;
55216;SDS011;41086;46.736;15.666;2023-06-10T00:48:21;14.45;;;9.93;;
55216;SDS011;41086;46.736;15.666;2023-06-10T00:50:48;15.05;;;9.23;;
55216;SDS011;41086;46.736;15.666;2023-06-10T00:55:43;16.58;;;9.05;;
55216;SDS011;41086;46.736;15.666;2023-06-10T00:58:10;13.30;;;8.43;;
55216;SDS011;41086;46.736;15.666;2023-06-10T01:00:38;12.85;;;9.68;;
55216;SDS011;41086;46.736;15.666;2023-06-10T01:03:04;14.07;;;8.60;;
55216;SDS011;41086;46.736;15.666;2023-06-10T01:05:35;14.82;;;9.80;;
55216;SDS011;41086;46.736;15.666;2023-06-10T01:13:20;64.20;;;15.88;;
55216;SDS011;41086;46.736;15.666;2023-06-10T01:15:50;355.15;;;40.05;;
55216;SDS011;41086;46.736;15.666;2023-06-10T01:18:18;312.13;;;34.60;;
55216;SDS011;41086;46.736;15.666;2023-06-10T01:20:46;591.67;;;56.83;;
55216;SDS011;41086;46.736;15.666;2023-06-10T01:23:16;135.95;;;16.38;;
55216;SDS011;41086;46.736;15.666;2023-06-10T01:25:46;22.73;;;11.93;;
55216;SDS011;41086;46.736;15.666;2023-06-10T01:28:57;13.63;;;10.80;;
55216;SDS011;41086;46.736;15.666;2023-06-10T01:31:23;69.38;;;16.58;;
55216;SDS011;41086;46.736;15.666;2023-06-10T01:34:03;29.77;;;11.82;;
55216;SDS011;41086;46.736;15.666;2023-06-10T01:36:35;22.98;;;11.00;;
55216;SDS011;41086;46.736;15.666;2023-06-10T01:39:06;19.25;;;11.38;;
55216;SDS011;41086;46.736;15.666;2023-06-10T01:41:37;31.58;;;11.95;;
55216;SDS011;41086;46.736;15.666;2023-06-10T01:44:04;46.15;;;12.93;;
55216;SDS011;41086;46.736;15.666;2023-06-10T01:46:31;22.80;;;11.20;;
55216;SDS011;41086;46.736;15.666;2023-06-10T01:48:58;18.25;;;10.85;;
55216;SDS011;41086;46.736;15.666;2023-06-10T01:51:25;14.65;;;10.35;;
55216;SDS011;41086;46.736;15.666;2023-06-10T01:53:51;18.58;;;9.93;;
55216;SDS011;41086;46.736;15.666;2023-06-10T01:56:19;23.00;;;10.88;;
55216;SDS011;41086;46.736;15.666;2023-06-10T01:58:46;23.60;;;11.43;;
55216;SDS011;41086;46.736;15.666;2023-06-10T02:01:13;16.00;;;10.38;;
55216;SDS011;41086;46.736;15.666;2023-06-10T02:03:41;23.48;;;10.35;;
55216;SDS011;41086;46.736;15.666;2023-06-10T02:06:08;24.50;;;11.68;;
55216;SDS011;41086;46.736;15.666;2023-06-10T02:08:35;16.48;;;10.93;;
55216;SDS011;41086;46.736;15.666;2023-06-10T02:11:02;20.95;;;13.90;;
55216;SDS011;41086;46.736;15.666;2023-06-10T02:13:29;15.75;;;11.43;;
55216;SDS011;41086;46.736;15.666;2023-06-10T02:15:56;19.80;;;11.60;;
55216;SDS011;41086;46.736;15.666;2023-06-10T02:18:27;12.65;;;10.13;;
55216;SDS011;41086;46.736;15.666;2023-06-10T02:20:54;38.83;;;11.85;;
55216;SDS011;41086;46.736;15.666;2023-06-10T02:23:21;24.02;;;13.63;;
55216;SDS011;41086;46.736;15.666;2023-06-10T02:25:48;34.88;;;12.27;;
55216;SDS011;41086;46.736;15.666;2023-06-10T02:28:15;26.42;;;10.90;;
55216;SDS011;41086;46.736;15.666;2023-06-10T02:30:42;13.93;;;9.82;;
55216;SDS011;41086;46.736;15.666;2023-06-10T02:38:04;38.60;;;12.75;;
55216;SDS011;41086;46.736;15.666;2023-06-10T02:40:33;21.77;;;10.73;;
55216;SDS011;41086;46.736;15.666;2023-06-10T02:43:00;17.27;;;10.57;;
55216;SDS011;41086;46.736;15.666;2023-06-10T02:45:27;18.60;;;10.85;;
55216;SDS011;41086;46.736;15.666;2023-06-10T02:47:56;17.40;;;10.20;;
55216;SDS011;41086;46.736;15.666;2023-06-10T02:50:23;17.70;;;10.73;;
55216;SDS011;41086;46.736;15.666;2023-06-10T02:53:07;13.60;;;8.93;;
55216;SDS011;41086;46.736;15.666;2023-06-10T02:55:37;14.98;;;9.35;;
55216;SDS011;41086;46.736;15.666;2023-06-10T02:58:08;12.30;;;8.88;;
55216;SDS011;41086;46.736;15.666;2023-06-10T03:00:35;14.10;;;9.30;;
55216;SDS011;41086;46.736;15.666;2023-06-10T03:03:04;22.27;;;9.05;;
55216;SDS011;41086;46.736;15.666;2023-06-10T03:05:40;12.65;;;8.68;;
55216;SDS011;41086;46.736;15.666;2023-06-10T03:08:08;58.88;;;12.32;;
55216;SDS011;41086;46.736;15.666;2023-06-10T03:10:38;109.68;;;13.07;;
55216;SDS011;41086;46.736;15.666;2023-06-10T03:13:06;146.35;;;14.70;;
55216;SDS011;41086;46.736;15.666;2023-06-10T03:15:33;54.15;;;12.15;;
55216;SDS011;41086;46.736;15.666;2023-06-10T03:18:04;37.13;;;10.80;;
55216;SDS011;41086;46.736;15.666;2023-06-10T03:20:31;13.57;;;8.00;;
55216;SDS011;41086;46.736;15.666;2023-06-10T03:23:04;13.00;;;7.57;;
55216;SDS011;41086;46.736;15.666;2023-06-10T03:25:33;10.40;;;7.75;;
55216;SDS011;41086;46.736;15.666;2023-06-10T03:30:27;10.35;;;7.60;;
55216;SDS011;41086;46.736;15.666;2023-06-10T03:32:55;11.07;;;8.07;;
55216;SDS011;41086;46.736;15.666;2023-06-10T03:35:24;13.90;;;7.80;;
55216;SDS011;41086;46.736;15.666;2023-06-10T03:40:18;12.40;;;8.40;;
55216;SDS011;41086;46.736;15.666;2023-06-10T03:42:46;10.38;;;7.93;;
55216;SDS011;41086;46.736;15.666;2023-06-10T03:45:15;10.80;;;7.25;;
55216;SDS011;41086;46.736;15.666;2023-06-10T03:47:44;11.90;;;7.82;;
55216;SDS011;41086;46.736;15.666;2023-06-10T03:50:13;10.55;;;7.70;;
55216;SDS011;41086;46.736;15.666;2023-06-10T03:52:42;10.43;;;7.50;;
55216;SDS011;41086;46.736;15.666;2023-06-10T03:55:10;12.43;;;7.38;;
55216;SDS011;41086;46.736;15.666;2023-06-10T03:57:43;10.45;;;7.75;;
55216;SDS011;41086;46.736;15.666;2023-06-10T04:02:41;10.10;;;7.22;;
55216;SDS011;41086;46.736;15.666;2023-06-10T04:05:19;27.08;;;10.70;;
55216;SDS011;41086;46.736;15.666;2023-06-10T04:07:51;36.80;;;13.00;;
55216;SDS011;41086;46.736;15.666;2023-06-10T04:10:17;41.95;;;13.52;;
55216;SDS011;41086;46.736;15.666;2023-06-10T04:12:44;36.55;;;14.65;;
55216;SDS011;41086;46.736;15.666;2023-06-10T04:15:12;32.60;;;13.77;;
55216;SDS011;41086;46.736;15.666;2023-06-10T04:17:40;53.20;;;16.58;;
55216;SDS011;41086;46.736;15.666;2023-06-10T04:20:09;53.30;;;15.88;;
55216;SDS011;41086;46.736;15.666;2023-06-10T04:22:38;117.75;;;24.65;;
55216;SDS011;41086;46.736;15.666;2023-06-10T04:25:05;53.80;;;19.08;;
55216;SDS011;41086;46.736;15.666;2023-06-10T04:27:34;37.55;;;16.55;;
55216;SDS011;41086;46.736;15.666;2023-06-10T04:30:02;25.95;;;15.18;;
55216;SDS011;41086;46.736;15.666;2023-06-10T04:32:32;25.08;;;12.95;;
55216;SDS011;41086;46.736;15.666;2023-06-10T04:34:59;28.58;;;13.93;;
55216;SDS011;41086;46.736;15.666;2023-06-10T04:37:27;24.92;;;13.32;;
55216;SDS011;41086;46.736;15.666;2023-06-10T04:39:55;21.83;;;12.98;;
55216;SDS011;41086;46.736;15.666;2023-06-10T04:42:23;21.48;;;13.40;;
55216;SDS011;41086;46.736;15.666;2023-06-10T04:44:53;24.30;;;13.00;;
55216;SDS011;41086;46.736;15.666;2023-06-10T04:49:47;20.92;;;11.85;;
55216;SDS011;41086;46.736;15.666;2023-06-10T04:52:14;21.50;;;11.02;;
55216;SDS011;41086;46.736;15.666;2023-06-10T04:54:44;16.17;;;11.23;;
55216;SDS011;41086;46.736;15.666;2023-06-10T04:57:11;15.57;;;10.75;;
55216;SDS011;41086;46.736;15.666;2023-06-10T04:59:38;16.58;;;10.65;;
55216;SDS011;41086;46.736;15.666;2023-06-10T05:02:05;15.88;;;10.93;;
55216;SDS011;41086;46.736;15.666;2023-06-10T05:04:32;15.65;;;10.70;;
55216;SDS011;41086;46.736;15.666;2023-06-10T05:06:58;15.93;;;11.73;;
55216;SDS011;41086;46.736;15.666;2023-06-10T05:09:25;15.23;;;11.13;;
55216;SDS011;41086;46.736;15.666;2023-06-10T05:11:52;14.48;;;10.73;;
55216;SDS011;41086;46.736;15.666;2023-06-10T05:14:20;17.02;;;10.95;;
55216;SDS011;41086;46.736;15.666;2023-06-10T05:16:47;13.68;;;11.45;;
55216;SDS011;41086;46.736;15.666;2023-06-10T05:19:15;14.52;;;10.70;;
55216;SDS011;41086;46.736;15.666;2023-06-10T05:21:45;13.30;;;10.43;;
55216;SDS011;41086;46.736;15.666;2023-06-10T05:24:12;14.88;;;10.98;;
55216;SDS011;41086;46.736;15.666;2023-06-10T05:29:07;14.70;;;10.32;;
55216;SDS011;41086;46.736;15.666;2023-06-10T05:31:37;11.73;;;9.48;;
55216;SDS011;41086;46.736;15.666;2023-06-10T05:34:04;11.55;;;9.68;;
55216;SDS011;41086;46.736;15.666;2023-06-10T05:36:31;18.17;;;10.13;;
55216;SDS011;41086;46.736;15.666;2023-06-10T05:38:59;12.18;;;9.85;;
55216;SDS011;41086;46.736;15.666;2023-06-10T05:43:53;13.65;;;10.25;;
55216;SDS011;41086;46.736;15.666;2023-06-10T05:46:20;13.02;;;9.95;;
55216;SDS011;41086;46.736;15.666;2023-06-10T05:48:47;11.57;;;9.93;;
55216;SDS011;41086;46.736;15.666;2023-06-10T05:53:41;11.00;;;9.50;;
55216;SDS011;41086;46.736;15.666;2023-06-10T05:56:07;11.85;;;9.48;;
55216;SDS011;41086;46.736;15.666;2023-06-10T05:58:34;14.05;;;10.25;;
55216;SDS011;41086;46.736;15.666;2023-06-10T06:01:01;14.05;;;11.40;;
55216;SDS011;41086;46.736;15.666;2023-06-10T06:03:28;16.95;;;10.00;;
55216;SDS011;41086;46.736;15.666;2023-06-10T06:05:55;13.85;;;10.38;;
55216;SDS011;41086;46.736;15.666;2023-06-10T06:08:22;13.90;;;10.30;;
55216;SDS011;41086;46.736;15.666;2023-06-10T06:10:49;15.00;;;10.75;;
55216;SDS011;41086;46.736;15.666;2023-06-10T06:13:16;14.27;;;10.65;;
55216;SDS011;41086;46.736;15.666;2023-06-10T06:15:43;13.82;;;10.38;;
55216;SDS011;41086;46.736;15.666;2023-06-10T06:18:11;15.10;;;9.43;;
55216;SDS011;41086;46.736;15.666;2023-06-10T06:20:38;10.85;;;9.35;;
55216;SDS011;41086;46.736;15.666;2023-06-10T06:25:32;12.35;;;9.90;;
55216;SDS011;41086;46.736;15.666;2023-06-10T06:27:59;11.05;;;9.30;;
55216;SDS011;41086;46.736;15.666;2023-06-10T06:30:26;15.10;;;9.73;;
55216;SDS011;41086;46.736;15.666;2023-06-10T06:32:53;12.77;;;9.63;;
55216;SDS011;41086;46.736;15.666;2023-06-10T06:35:20;13.20;;;9.35;;
55216;SDS011;41086;46.736;15.666;2023-06-10T06:37:47;12.48;;;8.93;;
55216;SDS011;41086;46.736;15.666;2023-06-10T06:40:18;18.75;;;10.20;;
55216;SDS011;41086;46.736;15.666;2023-06-10T06:45:21;11.55;;;9.93;;
55216;SDS011;41086;46.736;15.666;2023-06-10T06:47:48;11.70;;;10.13;;
55216;SDS011;41086;46.736;15.666;2023-06-10T06:50:17;13.75;;;9.95;;
55216;SDS011;41086;46.736;15.666;2023-06-10T06:52:44;10.05;;;8.75;;
55216;SDS011;41086;46.736;15.666;2023-06-10T06:55:11;13.88;;;9.68;;
55216;SDS011;41086;46.736;15.666;2023-06-10T06:57:38;13.57;;;9.48;;
55216;SDS011;41086;46.736;15.666;2023-06-10T07:00:05;11.15;;;9.70;;
55216;SDS011;41086;46.736;15.666;2023-06-10T07:02:34;11.10;;;9.52;;
55216;SDS011;41086;46.736;15.666;2023-06-10T07:05:02;12.07;;;10.20;;
55216;SDS011;41086;46.736;15.666;2023-06-10T07:07:30;13.25;;;9.63;;
55216;SDS011;41086;46.736;15.666;2023-06-10T07:12:23;10.90;;;9.25;;
55216;SDS011;41086;46.736;15.666;2023-06-10T07:14:50;12.55;;;8.93;;
55216;SDS011;41086;46.736;15.666;2023-06-10T07:17:17;11.30;;;10.13;;
55216;SDS011;41086;46.736;15.666;2023-06-10T07:19:45;10.77;;;9.68;;
55216;SDS011;41086;46.736;15.666;2023-06-10T07:22:12;11.68;;;9.43;;
55216;SDS011;41086;46.736;15.666;2023-06-10T07:24:41;10.23;;;8.98;;
55216;SDS011;41086;46.736;15.666;2023-06-10T07:27:08;12.27;;;9.32;;
55216;SDS011;41086;46.736;15.666;2023-06-10T07:29:36;10.13;;;8.02;;
55216;SDS011;41086;46.736;15.666;2023-06-10T07:32:03;12.32;;;8.82;;
55216;SDS011;41086;46.736;15.666;2023-06-10T07:34:30;11.68;;;9.05;;
55216;SDS011;41086;46.736;15.666;2023-06-10T07:36:57;9.35;;;8.35;;
55216;SDS011;41086;46.736;15.666;2023-06-10T07:39:25;9.82;;;7.80;;
55216;SDS011;41086;46.736;15.666;2023-06-10T07:41:52;10.48;;;8.30;;
55216;SDS011;41086;46.736;15.666;2023-06-10T07:44:20;11.00;;;8.55;;
55216;SDS011;41086;46.736;15.666;2023-06-10T07:46:48;9.05;;;7.90;;
55216;SDS011;41086;46.736;15.666;2023-06-10T07:49:16;12.10;;;8.45;;
55216;SDS011;41086;46.736;15.666;2023-06-10T07:51:43;10.20;;;8.07;;
55216;SDS011;41086;46.736;15.666;2023-06-10T07:54:11;10.95;;;8.10;;
55216;SDS011;41086;46.736;15.666;2023-06-10T07:56:43;7.80;;;6.95;;
55216;SDS011;41086;46.736;15.666;2023-06-10T07:59:10;8.32;;;6.40;;
55216;SDS011;41086;46.736;15.666;2023-06-10T08:04:06;10.23;;;7.00;;
55216;SDS011;41086;46.736;15.666;2023-06-10T08:06:33;9.63;;;6.00;;
55216;SDS011;41086;46.736;15.666;2023-06-10T08:09:00;9.27;;;6.57;;
55216;SDS011;41086;46.736;15.666;2023-06-10T08:11:27;9.55;;;7.40;;
55216;SDS011;41086;46.736;15.666;2023-06-10T08:13:55;9.13;;;6.78;;
55216;SDS011;41086;46.736;15.666;2023-06-10T08:18:49;8.07;;;5.97;;
55216;SDS011;41086;46.736;15.666;2023-06-10T08:21:20;8.55;;;6.28;;
55216;SDS011;41086;46.736;15.666;2023-06-10T08:23:47;8.73;;;6.78;;
55216;SDS011;41086;46.736;15.666;2023-06-10T08:26:14;9.13;;;6.85;;
55216;SDS011;41086;46.736;15.666;2023-06-10T08:31:08;10.68;;;5.68;;
55216;SDS011;41086;46.736;15.666;2023-06-10T08:33:34;10.40;;;7.05;;
55216;SDS011;41086;46.736;15.666;2023-06-10T08:36:02;8.52;;;6.40;;
55216;SDS011;41086;46.736;15.666;2023-06-10T08:38:29;8.77;;;6.03;;
55216;SDS011;41086;46.736;15.666;2023-06-10T08:41:03;8.95;;;5.50;;
55216;SDS011;41086;46.736;15.666;2023-06-10T08:43:39;8.10;;;5.47;;
55216;SDS011;41086;46.736;15.666;2023-06-10T08:46:10;8.33;;;5.67;;
55216;SDS011;41086;46.736;15.666;2023-06-10T08:48:42;8.20;;;6.35;;
55216;SDS011;41086;46.736;15.666;2023-06-10T08:51:11;8.75;;;6.05;;
55216;SDS011;41086;46.736;15.666;2023-06-10T08:53:41;8.50;;;5.30;;
55216;SDS011;41086;46.736;15.666;2023-06-10T08:56:18;8.02;;;6.15;;
55216;SDS011;41086;46.736;15.666;2023-06-10T08:58:47;7.38;;;5.93;;
55216;SDS011;41086;46.736;15.666;2023-06-10T09:01:14;7.70;;;5.30;;
55216;SDS011;41086;46.736;15.666;2023-06-10T09:03:43;6.57;;;5.07;;
55216;SDS011;41086;46.736;15.666;2023-06-10T09:06:10;8.60;;;5.55;;
55216;SDS011;41086;46.736;15.666;2023-06-10T09:08:37;7.13;;;5.50;;
55216;SDS011;41086;46.736;15.666;2023-06-10T09:11:05;6.40;;;5.25;;
55216;SDS011;41086;46.736;15.666;2023-06-10T09:13:32;5.85;;;4.70;;
55216;SDS011;41086;46.736;15.666;2023-06-10T09:15:59;5.75;;;5.03;;
55216;SDS011;41086;46.736;15.666;2023-06-10T09:18:29;6.28;;;5.13;;
55216;SDS011;41086;46.736;15.666;2023-06-10T09:20:56;5.43;;;4.75;;
55216;SDS011;41086;46.736;15.666;2023-06-10T09:23:23;5.97;;;4.60;;
55216;SDS011;41086;46.736;15.666;2023-06-10T09:25:57;5.47;;;4.40;;
55216;SDS011;41086;46.736;15.666;2023-06-10T09:28:25;6.05;;;4.75;;
55216;SDS011;41086;46.736;15.666;2023-06-10T09:31:05;5.85;;;4.45;;
55216;SDS011;41086;46.736;15.666;2023-06-10T09:33:34;8.27;;;4.93;;
55216;SDS011;41086;46.736;15.666;2023-06-10T09:36:04;5.95;;;5.35;;
55216;SDS011;41086;46.736;15.666;2023-06-10T09:38:31;7.40;;;4.93;;
55216;SDS011;41086;46.736;15.666;2023-06-10T09:40:59;4.95;;;4.15;;
55216;SDS011;41086;46.736;15.666;2023-06-10T09:43:39;8.13;;;4.57;;
55216;SDS011;41086;46.736;15.666;2023-06-10T09:46:06;5.68;;;4.38;;
55216;SDS011;41086;46.736;15.666;2023-06-10T09:48:43;7.05;;;4.93;;
55216;SDS011;41086;46.736;15.666;2023-06-10T09:51:12;6.22;;;5.28;;
55216;SDS011;41086;46.736;15.666;2023-06-10T09:53:39;6.32;;;5.13;;
55216;SDS011;41086;46.736;15.666;2023-06-10T09:56:06;5.93;;;4.47;;
55216;SDS011;41086;46.736;15.666;2023-06-10T09:58:37;6.20;;;4.65;;
55216;SDS011;41086;46.736;15.666;2023-06-10T10:01:05;5.78;;;4.90;;
55216;SDS011;41086;46.736;15.666;2023-06-10T10:03:33;8.18;;;4.18;;
55216;SDS011;41086;46.736;15.666;2023-06-10T10:06:00;5.88;;;4.32;;
55216;SDS011;41086;46.736;15.666;2023-06-10T10:08:27;7.43;;;4.63;;
55216;SDS011;41086;46.736;15.666;2023-06-10T10:10:55;6.47;;;4.30;;
55216;SDS011;41086;46.736;15.666;2023-06-10T10:13:24;5.22;;;4.00;;
55216;SDS011;41086;46.736;15.666;2023-06-10T10:15:53;7.18;;;4.50;;
55216;SDS011;41086;46.736;15.666;2023-06-10T10:18:24;6.35;;;4.32;;
55216;SDS011;41086;46.736;15.666;2023-06-10T10:20:57;6.18;;;4.53;;
55216;SDS011;41086;46.736;15.666;2023-06-10T10:23:39;6.40;;;4.20;;
55216;SDS011;41086;46.736;15.666;2023-06-10T10:26:24;5.45;;;4.20;;
55216;SDS011;41086;46.736;15.666;2023-06-10T10:29:03;5.28;;;4.28;;
55216;SDS011;41086;46.736;15.666;2023-06-10T10:31:52;5.15;;;4.32;;
55216;SDS011;41086;46.736;15.666;2023-06-10T10:37:18;5.18;;;4.38;;
55216;SDS011;41086;46.736;15.666;2023-06-10T10:39:46;8.05;;;4.22;;
55216;SDS011;41086;46.736;15.666;2023-06-10T10:42:14;6.43;;;4.85;;
55216;SDS011;41086;46.736;15.666;2023-06-10T10:44:42;4.50;;;3.90;;
55216;SDS011;41086;46.736;15.666;2023-06-10T10:47:09;6.75;;;4.40;;
55216;SDS011;41086;46.736;15.666;2023-06-10T10:49:37;8.57;;;4.70;;
55216;SDS011;41086;46.736;15.666;2023-06-10T10:52:10;4.75;;;4.13;;
55216;SDS011;41086;46.736;15.666;2023-06-10T10:54:39;4.30;;;3.90;;
55216;SDS011;41086;46.736;15.666;2023-06-10T11:02:18;8.45;;;4.72;;
55216;SDS011;41086;46.736;15.666;2023-06-10T11:04:46;6.05;;;5.22;;
55216;SDS011;41086;46.736;15.666;2023-06-10T11:07:14;6.40;;;5.20;;
55216;SDS011;41086;46.736;15.666;2023-06-10T11:09:59;5.65;;;4.07;;
55216;SDS011;41086;46.736;15.666;2023-06-10T11:12:41;8.63;;;5.63;;
55216;SDS011;41086;46.736;15.666;2023-06-10T11:15:19;6.95;;;6.25;;
55216;SDS011;41086;46.736;15.666;2023-06-10T11:18:32;7.55;;;5.22;;
55216;SDS011;41086;46.736;15.666;2023-06-10T11:28:43;4.93;;;4.32;;
55216;SDS011;41086;46.736;15.666;2023-06-10T11:31:29;5.78;;;4.30;;
55216;SDS011;41086;46.736;15.666;2023-06-10T11:33:59;4.53;;;3.97;;
55216;SDS011;41086;46.736;15.666;2023-06-10T11:36:27;5.10;;;3.47;;
55216;SDS011;41086;46.736;15.666;2023-06-10T11:38:57;5.53;;;3.92;;
55216;SDS011;41086;46.736;15.666;2023-06-10T11:41:28;3.47;;;3.08;;
55216;SDS011;41086;46.736;15.666;2023-06-10T11:44:00;5.32;;;3.47;;
55216;SDS011;41086;46.736;15.666;2023-06-10T11:46:37;4.10;;;3.20;;
55216;SDS011;41086;46.736;15.666;2023-06-10T11:49:05;3.90;;;3.10;;
55216;SDS011;41086;46.736;15.666;2023-06-10T11:51:33;3.85;;;3.22;;
55216;SDS011;41086;46.736;15.666;2023-06-10T11:54:05;4.35;;;3.15;;
55216;SDS011;41086;46.736;15.666;2023-06-10T11:56:34;3.83;;;3.38;;
55216;SDS011;41086;46.736;15.666;2023-06-10T11:59:05;5.82;;;3.25;;
55216;SDS011;41086;46.736;15.666;2023-06-10T12:01:38;5.85;;;3.53;;
55216;SDS011;41086;46.736;15.666;2023-06-10T12:04:11;4.85;;;3.50;;
55216;SDS011;41086;46.736;15.666;2023-06-10T12:09:20;4.00;;;3.35;;
55216;SDS011;41086;46.736;15.666;2023-06-10T12:11:54;4.88;;;3.90;;
55216;SDS011;41086;46.736;15.666;2023-06-10T12:17:20;4.47;;;3.50;;
55216;SDS011;41086;46.736;15.666;2023-06-10T12:19:49;6.15;;;3.72;;
55216;SDS011;41086;46.736;15.666;2023-06-10T12:22:17;12.10;;;4.10;;
55216;SDS011;41086;46.736;15.666;2023-06-10T12:24:56;4.78;;;3.65;;
55216;SDS011;41086;46.736;15.666;2023-06-10T12:27:26;5.18;;;4.50;;
55216;SDS011;41086;46.736;15.666;2023-06-10T12:29:55;6.90;;;4.10;;
55216;SDS011;41086;46.736;15.666;2023-06-10T12:32:34;4.68;;;4.15;;
55216;SDS011;41086;46.736;15.666;2023-06-10T12:35:12;5.63;;;4.00;;
55216;SDS011;41086;46.736;15.666;2023-06-10T12:37:41;8.02;;;5.00;;
55216;SDS011;41086;46.736;15.666;2023-06-10T12:40:09;7.40;;;5.00;;
55216;SDS011;41086;46.736;15.666;2023-06-10T12:42:37;5.22;;;4.45;;
55216;SDS011;41086;46.736;15.666;2023-06-10T12:45:04;6.00;;;4.55;;
55216;SDS011;41086;46.736;15.666;2023-06-10T12:47:35;4.70;;;4.20;;
55216;SDS011;41086;46.736;15.666;2023-06-10T12:50:05;7.47;;;4.43;;
55216;SDS011;41086;46.736;15.666;2023-06-10T12:52:32;4.20;;;3.70;;
55216;SDS011;41086;46.736;15.666;2023-06-10T12:55:00;5.38;;;3.63;;
55216;SDS011;41086;46.736;15.666;2023-06-10T12:57:27;4.40;;;3.67;;
55216;SDS011;41086;46.736;15.666;2023-06-10T12:59:54;6.32;;;2.70;;
55216;SDS011;41086;46.736;15.666;2023-06-10T13:02:27;3.47;;;2.80;;
55216;SDS011;41086;46.736;15.666;2023-06-10T13:04:53;3.10;;;2.55;;
55216;SDS011;41086;46.736;15.666;2023-06-10T13:07:20;3.95;;;3.15;;
55216;SDS011;41086;46.736;15.666;2023-06-10T13:09:49;7.05;;;3.00;;
55216;SDS011;41086;46.736;15.666;2023-06-10T13:12:16;3.90;;;3.30;;
55216;SDS011;41086;46.736;15.666;2023-06-10T13:14:55;5.05;;;3.70;;
55216;SDS011;41086;46.736;15.666;2023-06-10T13:17:22;4.25;;;3.40;;
55216;SDS011;41086;46.736;15.666;2023-06-10T13:19:49;4.95;;;3.92;;
55216;SDS011;41086;46.736;15.666;2023-06-10T13:22:16;4.45;;;3.92;;
55216;SDS011;41086;46.736;15.666;2023-06-10T13:24:45;5.70;;;4.18;;
55216;SDS011;41086;46.736;15.666;2023-06-10T13:27:13;9.18;;;6.35;;
55216;SDS011;41086;46.736;15.666;2023-06-10T13:29:42;23.25;;;17.75;;
55216;SDS011;41086;46.736;15.666;2023-06-10T13:32:09;6.60;;;4.25;;
55216;SDS011;41086;46.736;15.666;2023-06-10T13:34:36;9.85;;;8.15;;
55216;SDS011;41086;46.736;15.666;2023-06-10T13:37:03;11.63;;;9.52;;
55216;SDS011;41086;46.736;15.666;2023-06-10T13:39:31;16.90;;;11.02;;
55216;SDS011;41086;46.736;15.666;2023-06-10T13:41:58;10.35;;;5.80;;
55216;SDS011;41086;46.736;15.666;2023-06-10T13:44:24;8.05;;;7.13;;
55216;SDS011;41086;46.736;15.666;2023-06-10T13:46:51;5.13;;;4.22;;
55216;SDS011;41086;46.736;15.666;2023-06-10T13:49:18;5.40;;;3.97;;
55216;SDS011;41086;46.736;15.666;2023-06-10T13:51:46;5.30;;;3.90;;
55216;SDS011;41086;46.736;15.666;2023-06-10T13:54:12;5.00;;;4.25;;
55216;SDS011;41086;46.736;15.666;2023-06-10T13:56:41;6.25;;;3.90;;
55216;SDS011;41086;46.736;15.666;2023-06-10T13:59:08;4.10;;;3.50;;
55216;SDS011;41086;46.736;15.666;2023-06-10T14:01:35;5.78;;;3.83;;
55216;SDS011;41086;46.736;15.666;2023-06-10T14:04:02;5.30;;;4.43;;
55216;SDS011;41086;46.736;15.666;2023-06-10T14:06:29;4.78;;;4.00;;
55216;SDS011;41086;46.736;15.666;2023-06-10T14:08:57;6.28;;;4.30;;
55216;SDS011;41086;46.736;15.666;2023-06-10T14:11:23;5.13;;;4.05;;
55216;SDS011;41086;46.736;15.666;2023-06-10T14:13:50;5.97;;;4.18;;
55216;SDS011;41086;46.736;15.666;2023-06-10T14:16:17;5.55;;;4.15;;
55216;SDS011;41086;46.736;15.666;2023-06-10T14:18:44;6.88;;;5.50;;
55216;SDS011;41086;46.736;15.666;2023-06-10T14:21:11;8.65;;;7.80;;
55216;SDS011;41086;46.736;15.666;2023-06-10T14:23:38;6.05;;;4.40;;
55216;SDS011;41086;46.736;15.666;2023-06-10T14:26:05;6.70;;;5.30;;
55216;SDS011;41086;46.736;15.666;2023-06-10T14:28:33;6.60;;;4.93;;
55216;SDS011;41086;46.736;15.666;2023-06-10T14:31:00;8.35;;;5.18;;
55216;SDS011;41086;46.736;15.666;2023-06-10T14:33:27;6.10;;;4.75;;
55216;SDS011;41086;46.736;15.666;2023-06-10T14:35:54;5.25;;;4.47;;
55216;SDS011;41086;46.736;15.666;2023-06-10T14:38:21;7.32;;;4.75;;
55216;SDS011;41086;46.736;15.666;2023-06-10T14:40:48;14.90;;;5.13;;
55216;SDS011;41086;46.736;15.666;2023-06-10T14:43:15;7.93;;;4.47;;
55216;SDS011;41086;46.736;15.666;2023-06-10T14:45:41;5.63;;;4.88;;
55216;SDS011;41086;46.736;15.666;2023-06-10T14:48:09;5.43;;;4.85;;
55216;SDS011;41086;46.736;15.666;2023-06-10T14:50:36;5.85;;;4.85;;
55216;SDS011;41086;46.736;15.666;2023-06-10T14:53:04;5.68;;;5.05;;
55216;SDS011;41086;46.736;15.666;2023-06-10T14:55:31;7.07;;;5.22;;
55216;SDS011;41086;46.736;15.666;2023-06-10T14:57:58;9.15;;;5.07;;
55216;SDS011;41086;46.736;15.666;2023-06-10T15:00:25;5.07;;;4.57;;
55216;SDS011;41086;46.736;15.666;2023-06-10T15:02:52;6.18;;;4.75;;
55216;SDS011;41086;46.736;15.666;2023-06-10T15:05:22;5.78;;;4.90;;
55216;SDS011;41086;46.736;15.666;2023-06-10T15:07:48;7.78;;;4.70;;
55216;SDS011;41086;46.736;15.666;2023-06-10T15:10:15;12.32;;;5.45;;
55216;SDS011;41086;46.736;15.666;2023-06-10T15:12:43;7.65;;;5.30;;
55216;SDS011;41086;46.736;15.666;2023-06-10T15:15:10;6.75;;;5.53;;
55216;SDS011;41086;46.736;15.666;2023-06-10T15:17:37;5.80;;;4.75;;
55216;SDS011;41086;46.736;15.666;2023-06-10T15:20:04;8.30;;;5.45;;
55216;SDS011;41086;46.736;15.666;2023-06-10T15:22:32;5.90;;;5.18;;
55216;SDS011;41086;46.736;15.666;2023-06-10T15:25:01;10.82;;;6.18;;
55216;SDS011;41086;46.736;15.666;2023-06-10T15:27:46;6.72;;;6.03;;
55216;SDS011;41086;46.736;15.666;2023-06-10T15:30:13;8.63;;;5.78;;
55216;SDS011;41086;46.736;15.666;2023-06-10T15:32:40;6.45;;;5.80;;
55216;SDS011;41086;46.736;15.666;2023-06-10T15:35:07;6.30;;;5.55;;
55216;SDS011;41086;46.736;15.666;2023-06-10T15:37:34;6.68;;;5.45;;
55216;SDS011;41086;46.736;15.666;2023-06-10T15:40:02;6.55;;;5.82;;